Terminal Aerodrome Forecast
Issued by NWS

Home | Current Version | Previous Version | Text Only | Print | Product List | Glossary On
Versions: 1 2 3 4 5 6 7 8 9 10 11 12 13 14 15 16 17 18 19 20 21
000
FTUS41 KPHI 302207 AAC
TAFPNE
TAF AMD
KPNE 302207Z 3022/0118 00000KT P6SM VCSH FEW030 SCT110
      TEMPO 3022/3024 18015G25KT 5SM TSRA BKN040CB
     FM010000 17008KT P6SM SHRA SCT035 BKN050
      TEMPO 0100/0104 5SM TSRA BR BKN035CB
     FM010500 16004KT 4SM -SHRA BR BKN035 OVC050
     FM010900 23004KT 4SM -SHRA BR BKN035 OVC050
     FM011500 25010KT P6SM SCT050 BKN250=

USA.gov is the U.S. government's official web portal to all federal, state and local government web resources and services.